الصفحة الرئيسية
METAR-TAF:

METAR-TAF

مطار :

فلاديقوقاز, روسيا

دائرة عرض: 43-12-18N, خط طول: 044-36-24E, ارتفاع: 510 متر

مراقبة الطقس الحالي

تاريخ ووقت الإصدار 12 دقيقة قبل الساعة 04:30UTC
ريح 2 عقدةمن اتجاهات متغيرة
درجة الحرارة -4°درجة مئوية
الرطوبة 93%
ضغط 1029 hPa
الرؤية: 0050 متر
ضباب مجمِّد

METAR: URMO 290430Z VRB01MPS 0050 R09/M0200N FZFG VV001 M04/M05 Q1029 R09/190060 NOSIG RMK QBB050 MT OBSC QFE727/0970

زمن: 07:42 (04:42 UTC)

توقعات

تاريخ ووقت الإصدار 2ساعات و 42 دقيقة قبل الساعة 02:00UTC
التوقعات صالحة من29 الساعة 03 UTC إلى 29 الساعة 12 UTC
ريح 6 عقدة من الشرق/الجنوب الشرقي تتزايد حتى 16 عقدة
الرؤية: 0300 متر
ملبد بالغيوم على ارتفاع 200 قدم
ضباب مجمِّد
أصبح
من 29 الساعة 08 UTC إلى 29 الساعة 09 UTC
الرؤية: 6000 متر
غيوم مفككة على ارتفاع 1600 قدم

TAF: URMO 290200Z 2903/2912 11003G08MPS 0300 FZFG OVC002 BECMG 2908/2909 6000 NSW BKN016

أرصاد الطقس والتوقعات من أكثر من 4000 مطار (تقارير الطقس للمطار METAR والتنبؤ بالطقس بالمطارTAF).

المحطات المتاحة هي النقط الصفراء والحمراء على الخريطة.

حرك المؤشر فوق النقطة لمعرفة اسم المحطة.

ثم انقر لمعرفة أرصاد وتوقعات الطقس.

لتغيير الخارطة: اضغط على الأزرار الخضراء مع رمز الصليب الأسود للتكبير. على الزر الأخضر مع شرطة للتصغير، أو على الأسهم الخضراء للخرائط المجاورة.


METAR-TAF: